Time;durP1;ratioP1;P1;durP2;ratioP2;P2;SDS_P1;SDS_P2;PMS_P1;PMS_P2;Temp;Humidity;BMP_temperature;BMP_pressure;BME280_temperature;BME280_humidity;BME280_pressure;Samples;Min_cycle;Max_cycle;Signal;HPM_P1;HPM_P2
2023/04/24 00:00:08;;;;;;;7.18;5.65;;;;;;;;;;5086672;28;20044;-75
2023/04/24 00:02:37;;;;;;;8.40;5.97;;;;;;;;;;5076398;28;20041;-75
2023/04/24 00:05:05;;;;;;;7.70;5.72;;;;;;;;;;5079072;28;20101;-75
2023/04/24 00:07:31;;;;;;;6.18;5.57;;;;;;;;;;5074596;28;20490;-75
2023/04/24 00:09:57;;;;;;;8.10;6.03;;;;;;;;;;5074806;28;20483;-75
2023/04/24 00:12:23;;;;;;;8.48;6.22;;;;;;;;;;5088962;28;20079;-75
2023/04/24 00:14:49;;;;;;;8.23;6.28;;;;;;;;;;5096036;28;20050;-75
2023/04/24 00:17:16;;;;;;;7.65;5.72;;;;;;;;;;5078915;28;20054;-75
2023/04/24 00:19:42;;;;;;;6.88;5.93;;;;;;;;;;5076175;28;20040;-75
2023/04/24 00:22:08;;;;;;;8.68;5.95;;;;;;;;;;5078197;28;20087;-75
2023/04/24 00:24:34;;;;;;;8.82;6.53;;;;;;;;;;5078102;28;20060;-75
2023/04/24 00:27:00;;;;;;;7.20;6.35;;;;;;;;;;5077573;28;20123;-75
2023/04/24 00:29:28;;;;;;;7.95;6.07;;;;;;;;;;5076098;28;20048;-76
2023/04/24 00:31:54;;;;;;;8.98;6.65;;;;;;;;;;5078540;28;20490;-76
2023/04/24 00:34:20;;;;;;;7.75;6.20;;;;;;;;;;5082153;28;20382;-76
2023/04/24 00:36:46;;;;;;;7.32;5.97;;;;;;;;;;5078979;28;20037;-76
2023/04/24 00:39:12;;;;;;;8.23;6.60;;;;;;;;;;5075251;28;20048;-76
2023/04/24 00:41:38;;;;;;;8.93;6.78;;;;;;;;;;5074613;28;20045;-76
2023/04/24 00:44:04;;;;;;;9.13;6.10;;;;;;;;;;5081769;28;20165;-76
2023/04/24 00:46:30;;;;;;;8.77;6.40;;;;;;;;;;5085453;28;20040;-76
2023/04/24 00:48:57;;;;;;;8.48;7.13;;;;;;;;;;5074647;28;20036;-76
2023/04/24 00:51:24;;;;;;;8.85;6.47;;;;;;;;;;5085964;28;20046;-76
2023/04/24 00:53:51;;;;;;;8.27;6.70;;;;;;;;;;5081390;28;20076;-76
2023/04/24 00:56:17;;;;;;;7.88;6.20;;;;;;;;;;5088956;28;20044;-76
2023/04/24 00:58:43;;;;;;;7.40;6.30;;;;;;;;;;5091864;28;20044;-76
2023/04/24 01:01:11;;;;;;;20.02;6.88;;;;;;;;;;5094393;28;20040;-76
2023/04/24 01:03:38;;;;;;;7.18;6.18;;;;;;;;;;5094574;28;20123;-76
2023/04/24 01:06:04;;;;;;;7.65;6.22;;;;;;;;;;5094428;28;20079;-76
2023/04/24 01:08:30;;;;;;;8.60;6.40;;;;;;;;;;5073542;28;20044;-76
2023/04/24 01:10:57;;;;;;;7.63;6.10;;;;;;;;;;5073908;28;20040;-76
2023/04/24 01:13:24;;;;;;;6.78;6.00;;;;;;;;;;5073561;28;20040;-76
2023/04/24 01:15:50;;;;;;;7.72;5.90;;;;;;;;;;5073938;28;20040;-76
2023/04/24 01:18:16;;;;;;;7.72;5.90;;;;;;;;;;5081874;28;20048;-76
2023/04/24 01:20:44;;;;;;;7.03;6.28;;;;;;;;;;5092380;28;20408;-76
2023/04/24 01:23:11;;;;;;;7.60;5.57;;;;;;;;;;5093843;28;20062;-76
2023/04/24 01:25:38;;;;;;;6.65;5.93;;;;;;;;;;5084236;28;20041;-76
2023/04/24 01:28:04;;;;;;;6.80;5.95;;;;;;;;;;5084531;28;20040;-76
2023/04/24 01:30:31;;;;;;;7.20;5.88;;;;;;;;;;5089468;28;20040;-76
2023/04/24 01:32:57;;;;;;;6.82;6.10;;;;;;;;;;5076823;28;20036;-76
2023/04/24 01:35:23;;;;;;;7.20;6.20;;;;;;;;;;5076820;28;20040;-76
2023/04/24 01:37:49;;;;;;;8.48;6.63;;;;;;;;;;5081508;28;20067;-75
2023/04/24 01:40:15;;;;;;;7.53;6.10;;;;;;;;;;5088490;28;20435;-75
2023/04/24 01:42:42;;;;;;;7.15;6.35;;;;;;;;;;5093561;28;20055;-75
2023/04/24 01:45:10;;;;;;;10.18;7.35;;;;;;;;;;5088365;28;20040;-75
2023/04/24 01:47:37;;;;;;;8.65;7.20;;;;;;;;;;5081789;28;20045;-75
2023/04/24 01:50:03;;;;;;;8.13;6.47;;;;;;;;;;5077992;28;20048;-75
2023/04/24 01:52:32;;;;;;;10.40;6.82;;;;;;;;;;5082681;28;20167;-75
2023/04/24 01:55:00;;;;;;;8.10;6.90;;;;;;;;;;5088900;28;20049;-75
2023/04/24 01:57:26;;;;;;;8.98;7.20;;;;;;;;;;5079444;28;20437;-75
2023/04/24 01:59:52;;;;;;;8.07;7.10;;;;;;;;;;5078386;28;20146;-75
2023/04/24 02:02:20;;;;;;;9.77;7.00;;;;;;;;;;5076284;28;20182;-75
2023/04/24 02:04:47;;;;;;;9.25;7.45;;;;;;;;;;5079502;28;20041;-75
2023/04/24 02:07:13;;;;;;;9.90;7.05;;;;;;;;;;5080089;28;20101;-75
2023/04/24 02:09:39;;;;;;;10.30;8.10;;;;;;;;;;5089900;28;20123;-75
2023/04/24 02:12:05;;;;;;;10.25;8.05;;;;;;;;;;5092103;28;20379;-75
2023/04/24 02:14:31;;;;;;;10.07;8.00;;;;;;;;;;5078450;28;20471;-76
2023/04/24 02:16:57;;;;;;;8.73;7.78;;;;;;;;;;5091408;28;20071;-76
2023/04/24 02:19:23;;;;;;;10.40;7.65;;;;;;;;;;5083534;28;20048;-75
2023/04/24 02:21:50;;;;;;;11.05;8.00;;;;;;;;;;5086277;28;20162;-76
2023/04/24 02:24:16;;;;;;;9.98;8.05;;;;;;;;;;5095649;28;20074;-76
2023/04/24 02:26:42;;;;;;;13.43;7.60;;;;;;;;;;5093546;28;20064;-75
2023/04/24 02:29:08;;;;;;;10.93;8.45;;;;;;;;;;5089327;28;20057;-75
2023/04/24 02:31:34;;;;;;;10.93;8.27;;;;;;;;;;5087279;28;20042;-76
2023/04/24 02:34:00;;;;;;;11.85;8.65;;;;;;;;;;5091487;28;20064;-76
2023/04/24 02:36:26;;;;;;;11.00;8.35;;;;;;;;;;5079132;28;20036;-76
2023/04/24 02:38:52;;;;;;;10.55;8.52;;;;;;;;;;5076225;28;20512;-76
2023/04/24 02:41:19;;;;;;;10.85;8.70;;;;;;;;;;5076572;28;20076;-76
2023/04/24 02:43:45;;;;;;;13.75;8.68;;;;;;;;;;5087101;28;20044;-75
2023/04/24 02:46:11;;;;;;;11.70;9.23;;;;;;;;;;5091266;28;20044;-75
2023/04/24 02:48:37;;;;;;;11.30;8.95;;;;;;;;;;5078009;28;20044;-75
2023/04/24 02:51:04;;;;;;;10.73;8.60;;;;;;;;;;5077738;28;20469;-76
2023/04/24 02:53:30;;;;;;;11.35;8.68;;;;;;;;;;5076258;28;20123;-76
2023/04/24 02:55:56;;;;;;;10.60;7.05;;;;;;;;;;5076142;28;20048;-75
2023/04/24 02:58:22;;;;;;;12.80;7.10;;;;;;;;;;5089132;28;20052;-75
2023/04/24 03:00:49;;;;;;;8.75;6.22;;;;;;;;;;5076377;28;20089;-76
2023/04/24 03:03:15;;;;;;;9.30;6.50;;;;;;;;;;5076279;28;20124;-76
2023/04/24 03:05:41;;;;;;;8.18;6.28;;;;;;;;;;5079986;28;20051;-75
2023/04/24 03:08:07;;;;;;;7.25;5.18;;;;;;;;;;5092021;28;20044;-75
2023/04/24 03:10:33;;;;;;;7.53;5.25;;;;;;;;;;5075935;28;20052;-75
2023/04/24 03:12:59;;;;;;;7.65;5.00;;;;;;;;;;5076093;28;20044;-75
2023/04/24 03:15:25;;;;;;;8.45;4.95;;;;;;;;;;5076265;28;20047;-75
2023/04/24 03:17:52;;;;;;;5.15;4.10;;;;;;;;;;5076234;28;20118;-75
2023/04/24 03:20:18;;;;;;;4.75;3.88;;;;;;;;;;5095914;28;20470;-75
2023/04/24 03:22:44;;;;;;;4.32;3.22;;;;;;;;;;5081376;28;20049;-75
2023/04/24 03:25:10;;;;;;;2.75;2.30;;;;;;;;;;5076200;28;20044;-75
2023/04/24 03:27:37;;;;;;;2.80;2.00;;;;;;;;;;5075747;28;20124;-74
2023/04/24 03:30:03;;;;;;;2.13;1.80;;;;;;;;;;5079538;28;20045;-74
2023/04/24 03:32:30;;;;;;;1.85;1.40;;;;;;;;;;5088002;28;20040;-74
2023/04/24 03:34:56;;;;;;;2.38;1.60;;;;;;;;;;5079707;28;20044;-74
2023/04/24 03:37:22;;;;;;;3.50;1.52;;;;;;;;;;5081765;28;20055;-74
2023/04/24 03:39:48;;;;;;;1.83;1.30;;;;;;;;;;5082131;28;20037;-74
2023/04/24 03:42:14;;;;;;;2.25;1.52;;;;;;;;;;5075759;28;20177;-74
2023/04/24 03:44:40;;;;;;;1.58;1.40;;;;;;;;;;5087865;28;20137;-74
2023/04/24 03:47:06;;;;;;;2.00;1.80;;;;;;;;;;5075191;28;20476;-74
2023/04/24 03:49:32;;;;;;;2.08;1.77;;;;;;;;;;5087851;28;20603;-74
2023/04/24 03:51:58;;;;;;;3.80;2.60;;;;;;;;;;5076269;28;20133;-74
2023/04/24 03:54:25;;;;;;;2.75;2.40;;;;;;;;;;5075080;28;20563;-74
2023/04/24 03:56:51;;;;;;;4.55;3.10;;;;;;;;;;5088165;28;20072;-74
2023/04/24 03:59:17;;;;;;;4.68;3.55;;;;;;;;;;5084445;28;20082;-74
2023/04/24 04:01:43;;;;;;;5.43;3.60;;;;;;;;;;5086774;28;20415;-74
2023/04/24 04:04:09;;;;;;;4.63;3.20;;;;;;;;;;5092098;28;20459;-74
2023/04/24 04:06:36;;;;;;;4.65;3.28;;;;;;;;;;5077270;28;20056;-74
2023/04/24 04:09:03;;;;;;;4.55;2.90;;;;;;;;;;5087457;28;20048;-74
2023/04/24 04:11:29;;;;;;;3.58;2.85;;;;;;;;;;5074902;28;20048;-74
2023/04/24 04:13:56;;;;;;;3.83;2.90;;;;;;;;;;5075613;28;20119;-74
2023/04/24 04:16:23;;;;;;;4.68;3.70;;;;;;;;;;5076406;28;20080;-74
2023/04/24 04:18:49;;;;;;;4.85;3.38;;;;;;;;;;5075785;28;20052;-74
2023/04/24 04:21:15;;;;;;;5.80;3.97;;;;;;;;;;5075214;28;20041;-74
2023/04/24 04:23:41;;;;;;;6.03;3.78;;;;;;;;;;5075124;28;20384;-74
2023/04/24 04:26:07;;;;;;;5.70;3.95;;;;;;;;;;5087703;28;20044;-74
2023/04/24 04:28:34;;;;;;;6.80;5.20;;;;;;;;;;5090362;28;20036;-74
2023/04/24 04:31:00;;;;;;;7.78;5.95;;;;;;;;;;5081478;28;20056;-74
2023/04/24 04:33:27;;;;;;;7.13;5.05;;;;;;;;;;5093175;28;20050;-74
2023/04/24 04:35:53;;;;;;;5.93;4.55;;;;;;;;;;5086238;28;20126;-74
2023/04/24 04:38:19;;;;;;;5.72;4.05;;;;;;;;;;5075746;28;20401;-74
2023/04/24 04:40:46;;;;;;;4.85;3.50;;;;;;;;;;5086076;28;20063;-75
2023/04/24 04:43:14;;;;;;;3.92;3.13;;;;;;;;;;5074376;28;20040;-75
2023/04/24 04:45:42;;;;;;;5.60;3.55;;;;;;;;;;5073164;28;20047;-74
2023/04/24 04:48:09;;;;;;;5.53;3.75;;;;;;;;;;5072938;28;20078;-75
2023/04/24 04:50:35;;;;;;;6.10;3.95;;;;;;;;;;5075983;28;20554;-74
2023/04/24 04:53:02;;;;;;;7.20;5.20;;;;;;;;;;5085949;28;20471;-74
2023/04/24 04:55:28;;;;;;;7.78;5.38;;;;;;;;;;5085528;28;20494;-74
2023/04/24 04:57:55;;;;;;;10.60;5.82;;;;;;;;;;5092407;28;20479;-75
2023/04/24 05:00:21;;;;;;;7.57;5.90;;;;;;;;;;5086964;28;20511;-75
2023/04/24 05:02:47;;;;;;;7.97;5.88;;;;;;;;;;5056028;28;20505;-75
2023/04/24 05:05:14;;;;;;;9.27;6.13;;;;;;;;;;5081110;28;20456;-74
2023/04/24 05:07:40;;;;;;;10.23;6.40;;;;;;;;;;5075801;28;20044;-75
2023/04/24 05:10:06;;;;;;;10.73;5.75;;;;;;;;;;5092938;28;20131;-75
2023/04/24 05:12:32;;;;;;;9.32;5.47;;;;;;;;;;5094131;28;20108;-75
2023/04/24 05:14:58;;;;;;;7.90;6.00;;;;;;;;;;5088491;28;20140;-75
2023/04/24 05:17:25;;;;;;;8.95;6.38;;;;;;;;;;5094004;28;20048;-75
2023/04/24 05:19:51;;;;;;;7.15;5.50;;;;;;;;;;5063067;28;20498;-75
2023/04/24 05:22:20;;;;;;;10.07;5.72;;;;;;;;;;5077821;28;20052;-75
2023/04/24 05:24:49;;;;;;;8.85;5.03;;;;;;;;;;5073700;28;20170;-75
2023/04/24 05:27:15;;;;;;;9.05;4.40;;;;;;;;;;5073459;28;20040;-75
2023/04/24 05:29:44;;;;;;;5.15;3.47;;;;;;;;;;5083535;28;20044;-75
2023/04/24 05:32:10;;;;;;;7.22;3.95;;;;;;;;;;5091193;28;20121;-75
2023/04/24 05:34:36;;;;;;;5.93;3.63;;;;;;;;;;5087966;28;20040;-78
2023/04/24 05:37:03;;;;;;;7.05;4.10;;;;;;;;;;5092216;28;20075;-75
2023/04/24 05:39:29;;;;;;;5.03;4.03;;;;;;;;;;5084725;28;20044;-75
2023/04/24 05:41:57;;;;;;;7.45;3.80;;;;;;;;;;5072744;28;20051;-75
2023/04/24 05:44:23;;;;;;;4.75;2.85;;;;;;;;;;5087620;28;20048;-75
2023/04/24 05:46:50;;;;;;;6.07;3.03;;;;;;;;;;5092386;28;20044;-75
2023/04/24 05:49:16;;;;;;;6.05;2.70;;;;;;;;;;5091261;28;20040;-75
2023/04/24 05:51:42;;;;;;;4.35;2.58;;;;;;;;;;5073915;28;20484;-75
2023/04/24 05:54:08;;;;;;;4.85;2.58;;;;;;;;;;5073625;28;20080;-75
2023/04/24 05:56:34;;;;;;;4.68;2.40;;;;;;;;;;5084536;28;20047;-75
2023/04/24 05:59:00;;;;;;;3.92;2.45;;;;;;;;;;5077587;28;20045;-75
2023/04/24 06:01:26;;;;;;;4.80;2.47;;;;;;;;;;5080358;28;20040;-75
2023/04/24 06:03:53;;;;;;;3.50;2.45;;;;;;;;;;5090024;28;20502;-75
2023/04/24 06:06:19;;;;;;;6.10;2.80;;;;;;;;;;5095936;28;20048;-75
2023/04/24 06:08:45;;;;;;;5.15;2.58;;;;;;;;;;5097345;28;20040;-75
2023/04/24 06:11:11;;;;;;;3.70;2.55;;;;;;;;;;5092534;28;20032;-75
2023/04/24 06:13:37;;;;;;;4.75;2.80;;;;;;;;;;5086405;28;20036;-75
2023/04/24 06:16:03;;;;;;;3.60;2.67;;;;;;;;;;5079379;28;20403;-75
2023/04/24 06:18:29;;;;;;;3.58;2.70;;;;;;;;;;5081574;28;20051;-75
2023/04/24 06:20:55;;;;;;;4.72;2.65;;;;;;;;;;5093971;28;20375;-76
2023/04/24 06:23:21;;;;;;;3.67;2.55;;;;;;;;;;5095548;28;20064;-75
2023/04/24 06:25:47;;;;;;;5.97;2.90;;;;;;;;;;5077208;28;20120;-75
2023/04/24 06:28:13;;;;;;;5.18;2.60;;;;;;;;;;5090377;28;20040;-75
2023/04/24 06:30:40;;;;;;;4.15;2.72;;;;;;;;;;5098466;28;20045;-76
2023/04/24 06:33:06;;;;;;;4.95;2.70;;;;;;;;;;5076577;28;20041;-76
2023/04/24 06:35:33;;;;;;;4.82;2.90;;;;;;;;;;5080199;28;20040;-75
2023/04/24 06:37:59;;;;;;;3.55;2.33;;;;;;;;;;5082144;28;20086;-76
2023/04/24 06:40:25;;;;;;;7.18;2.70;;;;;;;;;;5076961;28;20231;-76
2023/04/24 06:42:52;;;;;;;5.03;3.10;;;;;;;;;;5086487;28;20044;-76
2023/04/24 06:45:19;;;;;;;6.43;3.83;;;;;;;;;;5084666;28;20051;-76
2023/04/24 06:47:45;;;;;;;6.95;4.65;;;;;;;;;;5081468;28;20496;-75
2023/04/24 06:50:11;;;;;;;8.02;5.80;;;;;;;;;;5078433;28;20486;-75
2023/04/24 06:52:37;;;;;;;9.68;6.43;;;;;;;;;;5087476;28;20040;-74
2023/04/24 06:55:04;;;;;;;14.48;7.65;;;;;;;;;;5081410;28;20043;-74
2023/04/24 06:57:30;;;;;;;12.70;8.35;;;;;;;;;;5087661;28;20048;-74
2023/04/24 06:59:56;;;;;;;14.25;8.43;;;;;;;;;;5060192;28;20131;-74
2023/04/24 07:02:22;;;;;;;18.42;10.50;;;;;;;;;;5075543;28;20174;-74
2023/04/24 07:04:48;;;;;;;16.38;9.75;;;;;;;;;;5093100;28;20047;-74
2023/04/24 07:07:15;;;;;;;18.23;11.10;;;;;;;;;;5078404;28;20510;-75
2023/04/24 07:09:42;;;;;;;18.80;11.32;;;;;;;;;;5075203;28;20044;-75
2023/04/24 07:12:11;;;;;;;18.20;10.25;;;;;;;;;;5093774;28;20101;-75
2023/04/24 07:14:38;;;;;;;19.23;11.32;;;;;;;;;;5093194;28;20159;-75
2023/04/24 07:17:07;;;;;;;19.08;9.88;;;;;;;;;;5089066;28;20041;-75
2023/04/24 07:19:36;;;;;;;21.25;12.32;;;;;;;;;;5075941;28;20036;-75
2023/04/24 07:22:03;;;;;;;18.95;11.48;;;;;;;;;;5076040;28;20060;-75
2023/04/24 07:24:29;;;;;;;23.88;13.48;;;;;;;;;;5075905;28;20544;-75
2023/04/24 07:26:56;;;;;;;21.10;11.00;;;;;;;;;;5085200;28;20047;-75
2023/04/24 07:29:22;;;;;;;21.38;11.15;;;;;;;;;;5083985;28;20044;-76
2023/04/24 07:31:49;;;;;;;17.23;10.60;;;;;;;;;;5085038;28;20046;-75
2023/04/24 07:34:20;;;;;;;19.88;11.52;;;;;;;;;;5084598;28;20039;-75
2023/04/24 07:36:47;;;;;;;17.15;10.80;;;;;;;;;;5083317;28;20393;-76
2023/04/24 07:39:13;;;;;;;15.52;10.15;;;;;;;;;;5082888;28;20051;-75
2023/04/24 07:41:39;;;;;;;20.95;10.35;;;;;;;;;;5083976;28;20040;-76
2023/04/24 07:44:05;;;;;;;19.38;11.30;;;;;;;;;;5076151;28;20371;-75
2023/04/24 07:46:31;;;;;;;16.67;10.65;;;;;;;;;;5075093;28;20078;-75
2023/04/24 07:48:59;;;;;;;18.45;11.43;;;;;;;;;;5077198;28;20410;-75
2023/04/24 07:51:27;;;;;;;21.25;10.68;;;;;;;;;;5078883;28;20097;-75
2023/04/24 07:53:54;;;;;;;17.38;9.80;;;;;;;;;;5083978;28;20115;-75
2023/04/24 07:56:21;;;;;;;19.73;10.65;;;;;;;;;;5082827;28;20101;-75
2023/04/24 07:58:47;;;;;;;15.55;9.30;;;;;;;;;;5080415;28;20093;-75
2023/04/24 08:01:13;;;;;;;15.90;9.60;;;;;;;;;;5085866;28;20111;-75
2023/04/24 08:03:39;;;;;;;14.15;9.65;;;;;;;;;;5082315;28;20051;-75
2023/04/24 08:06:05;;;;;;;16.25;9.63;;;;;;;;;;5078864;28;20506;-75
2023/04/24 08:08:32;;;;;;;17.40;10.43;;;;;;;;;;5078182;28;20040;-75
2023/04/24 08:10:58;;;;;;;16.85;10.43;;;;;;;;;;5076472;28;20044;-75
2023/04/24 08:13:24;;;;;;;12.75;8.55;;;;;;;;;;5079876;28;20036;-75
2023/04/24 08:15:50;;;;;;;10.90;7.93;;;;;;;;;;5081726;28;20049;-75
2023/04/24 08:18:16;;;;;;;13.25;8.48;;;;;;;;;;5080007;28;20056;-75
2023/04/24 08:20:42;;;;;;;12.32;6.80;;;;;;;;;;5080655;28;20051;-75
2023/04/24 08:23:08;;;;;;;11.48;6.65;;;;;;;;;;5077272;28;20083;-77
2023/04/24 08:25:35;;;;;;;12.05;6.20;;;;;;;;;;5081796;28;20060;-75
2023/04/24 08:28:02;;;;;;;12.07;7.57;;;;;;;;;;5084189;28;20142;-76
2023/04/24 08:30:29;;;;;;;11.30;7.47;;;;;;;;;;5088243;28;20044;-76
2023/04/24 08:32:55;;;;;;;14.30;8.05;;;;;;;;;;5081802;28;20098;-76
2023/04/24 08:35:21;;;;;;;12.93;7.03;;;;;;;;;;5092819;28;20036;-76
2023/04/24 08:37:47;;;;;;;10.23;5.68;;;;;;;;;;5094010;28;20051;-76
2023/04/24 08:40:15;;;;;;;11.68;6.32;;;;;;;;;;5087535;28;20130;-76
2023/04/24 08:42:45;;;;;;;10.10;6.00;;;;;;;;;;5086516;28;20040;-76
2023/04/24 08:45:12;;;;;;;15.40;7.65;;;;;;;;;;5075829;28;20105;-76
2023/04/24 08:47:41;;;;;;;11.43;6.88;;;;;;;;;;5078015;28;20101;-76
2023/04/24 08:50:08;;;;;;;9.20;5.40;;;;;;;;;;5084166;28;20075;-76
2023/04/24 08:52:34;;;;;;;14.95;6.70;;;;;;;;;;5073086;28;20101;-76
2023/04/24 08:55:02;;;;;;;12.35;6.05;;;;;;;;;;5085140;28;20048;-76
2023/04/24 08:57:29;;;;;;;10.93;5.53;;;;;;;;;;5076938;28;20041;-76
2023/04/24 08:59:56;;;;;;;14.43;5.88;;;;;;;;;;5084356;28;20075;-76
2023/04/24 09:02:23;;;;;;;10.73;5.75;;;;;;;;;;5092026;28;20036;-76
2023/04/24 09:04:50;;;;;;;9.85;5.07;;;;;;;;;;5092974;28;20043;-77
2023/04/24 09:07:17;;;;;;;13.63;5.72;;;;;;;;;;5093111;28;20051;-76
2023/04/24 09:09:43;;;;;;;10.18;5.35;;;;;;;;;;5091272;28;20041;-76
2023/04/24 09:12:10;;;;;;;7.03;5.03;;;;;;;;;;5091557;28;20047;-75
2023/04/24 09:14:39;;;;;;;7.78;4.47;;;;;;;;;;5080688;28;20043;-76
2023/04/24 09:17:06;;;;;;;9.45;4.75;;;;;;;;;;5090632;28;20052;-76
2023/04/24 09:19:32;;;;;;;8.77;5.13;;;;;;;;;;5086626;28;20037;-76
2023/04/24 09:21:58;;;;;;;7.07;4.50;;;;;;;;;;5088546;28;20071;-76
2023/04/24 09:24:24;;;;;;;10.85;5.00;;;;;;;;;;5078157;28;20051;-76
2023/04/24 09:27:01;;;;;;;8.20;4.13;;;;;;;;;;5088073;28;20120;-76
2023/04/24 09:29:28;;;;;;;7.97;4.90;;;;;;;;;;5086472;28;20039;-76
2023/04/24 09:31:54;;;;;;;7.22;3.88;;;;;;;;;;5075676;28;20051;-76
2023/04/24 09:34:24;;;;;;;9.57;3.72;;;;;;;;;;5078981;28;20051;-76
2023/04/24 09:36:51;;;;;;;7.97;4.22;;;;;;;;;;5085584;28;20047;-76
2023/04/24 09:39:19;;;;;;;8.65;4.00;;;;;;;;;;5092450;28;20036;-76
2023/04/24 09:41:48;;;;;;;10.05;4.22;;;;;;;;;;5092709;28;20044;-76
2023/04/24 09:44:20;;;;;;;9.80;3.80;;;;;;;;;;5088065;28;20044;-76
2023/04/24 09:46:51;;;;;;;7.22;3.58;;;;;;;;;;5080413;28;20119;-76
2023/04/24 09:49:20;;;;;;;9.75;3.50;;;;;;;;;;5080628;28;20071;-76
2023/04/24 09:51:46;;;;;;;7.50;3.75;;;;;;;;;;5084176;28;20047;-77
2023/04/24 09:54:17;;;;;;;9.40;3.45;;;;;;;;;;5078334;28;20108;-76
2023/04/24 09:56:47;;;;;;;8.88;3.90;;;;;;;;;;5082756;28;20478;-76
2023/04/24 09:59:17;;;;;;;7.88;3.72;;;;;;;;;;5086964;28;20044;-79
2023/04/24 10:01:44;;;;;;;8.43;3.70;;;;;;;;;;5089832;28;20049;-76
2023/04/24 10:04:23;;;;;;;13.18;3.83;;;;;;;;;;5080002;28;20059;-76
2023/04/24 10:06:50;;;;;;;8.15;3.67;;;;;;;;;;5078196;28;20045;-76
2023/04/24 10:09:16;;;;;;;8.15;3.38;;;;;;;;;;5093061;28;20051;-76
2023/04/24 10:11:46;;;;;;;8.50;3.35;;;;;;;;;;5087512;28;20115;-76
2023/04/24 10:14:13;;;;;;;10.90;3.17;;;;;;;;;;5079900;28;20047;-76
2023/04/24 10:16:40;;;;;;;9.23;3.35;;;;;;;;;;5079857;28;20028;-76
2023/04/24 10:19:09;;;;;;;6.57;3.03;;;;;;;;;;5083238;28;20426;-76
2023/04/24 10:21:38;;;;;;;9.55;3.25;;;;;;;;;;5074871;28;20063;-76
2023/04/24 10:24:07;;;;;;;5.50;3.03;;;;;;;;;;5075152;28;20032;-76
2023/04/24 10:26:33;;;;;;;6.55;3.00;;;;;;;;;;5086538;28;20040;-76
2023/04/24 10:29:03;;;;;;;10.18;3.10;;;;;;;;;;5082178;28;20102;-77
2023/04/24 10:31:33;;;;;;;5.75;2.70;;;;;;;;;;5087071;28;20183;-76
2023/04/24 10:34:00;;;;;;;8.23;3.15;;;;;;;;;;5092970;28;20514;-77
2023/04/24 10:36:27;;;;;;;7.93;2.83;;;;;;;;;;5084451;28;20150;-76
2023/04/24 10:38:56;;;;;;;7.03;2.75;;;;;;;;;;5092840;28;20072;-77
2023/04/24 10:41:23;;;;;;;9.88;2.97;;;;;;;;;;5082824;28;20101;-77
2023/04/24 10:44:15;;;;;;;10.70;3.30;;;;;;;;;;5090947;28;20105;-76
2023/04/24 10:46:46;;;;;;;8.77;2.97;;;;;;;;;;5089565;28;20125;-77
2023/04/24 10:49:28;;;;;;;10.30;3.00;;;;;;;;;;5096593;28;20385;-76
2023/04/24 10:51:55;;;;;;;9.93;3.45;;;;;;;;;;5090261;28;20047;-75
2023/04/24 10:57:30;;;;;;;6.82;3.10;;;;;;;;;;5039622;28;20322;-76
2023/04/24 11:00:15;;;;;;;8.27;3.03;;;;;;;;;;5089887;28;20040;-75
2023/04/24 11:02:48;;;;;;;6.60;2.50;;;;;;;;;;5092982;28;20047;-76
2023/04/24 11:05:17;;;;;;;8.52;3.60;;;;;;;;;;5085106;28;20052;-76
2023/04/24 11:08:02;;;;;;;5.60;2.40;;;;;;;;;;5088479;28;20444;-76
2023/04/24 11:10:31;;;;;;;6.35;2.55;;;;;;;;;;5087741;28;20399;-76
2023/04/24 11:12:57;;;;;;;8.27;2.42;;;;;;;;;;5085295;28;20032;-76
2023/04/24 11:15:50;;;;;;;7.20;2.40;;;;;;;;;;5086136;28;20374;-76
2023/04/24 11:18:25;;;;;;;7.53;2.63;;;;;;;;;;5077577;28;20047;-75
2023/04/24 11:20:54;;;;;;;7.57;2.83;;;;;;;;;;5085835;28;20082;-76
2023/04/24 11:23:21;;;;;;;6.18;2.58;;;;;;;;;;5096054;28;20079;-76
2023/04/24 11:26:07;;;;;;;6.20;2.47;;;;;;;;;;5095558;28;20066;-77
2023/04/24 11:28:33;;;;;;;8.43;2.50;;;;;;;;;;5083227;28;20050;-76
2023/04/24 11:30:59;;;;;;;5.35;2.25;;;;;;;;;;5089396;28;20055;-76
2023/04/24 11:33:25;;;;;;;6.00;2.20;;;;;;;;;;5082791;28;20039;-76
2023/04/24 11:35:51;;;;;;;5.75;2.10;;;;;;;;;;5094851;28;20174;-76
2023/04/24 11:38:18;;;;;;;6.47;2.45;;;;;;;;;;5086444;28;20119;-76
2023/04/24 11:40:44;;;;;;;7.75;2.50;;;;;;;;;;5088185;28;20044;-76
2023/04/24 11:43:11;;;;;;;4.80;2.28;;;;;;;;;;5095638;28;20050;-76
2023/04/24 11:45:39;;;;;;;3.35;1.90;;;;;;;;;;5088034;28;20047;-76
2023/04/24 11:48:05;;;;;;;5.78;2.30;;;;;;;;;;5087583;28;20044;-76
2023/04/24 11:50:31;;;;;;;5.13;1.90;;;;;;;;;;5090888;28;20044;-76
2023/04/24 11:52:57;;;;;;;5.38;2.28;;;;;;;;;;5092431;28;20040;-76
2023/04/24 11:55:27;;;;;;;4.25;1.90;;;;;;;;;;5081752;28;20051;-76
2023/04/24 11:58:01;;;;;;;5.70;2.10;;;;;;;;;;5092981;28;20060;-77
2023/04/24 12:00:28;;;;;;;5.93;2.05;;;;;;;;;;5084624;28;20074;-75
2023/04/24 12:03:05;;;;;;;5.25;2.20;;;;;;;;;;5087313;28;20072;-75
2023/04/24 12:05:31;;;;;;;7.80;2.30;;;;;;;;;;5091254;28;20083;-74
2023/04/24 12:07:57;;;;;;;5.78;2.17;;;;;;;;;;5090358;28;20106;-75
2023/04/24 12:10:25;;;;;;;5.80;1.70;;;;;;;;;;5085027;28;20040;-76
2023/04/24 12:12:52;;;;;;;4.65;1.90;;;;;;;;;;5085823;28;20052;-75
2023/04/24 12:15:19;;;;;;;3.65;1.23;;;;;;;;;;5078094;28;20135;-75
2023/04/24 12:17:45;;;;;;;2.97;1.77;;;;;;;;;;5076623;28;20047;-75
2023/04/24 12:20:11;;;;;;;4.07;1.83;;;;;;;;;;5060880;28;20044;-75
2023/04/24 12:22:47;;;;;;;3.03;1.58;;;;;;;;;;5079984;28;20053;-75
2023/04/24 12:25:17;;;;;;;3.85;1.63;;;;;;;;;;5081717;28;20039;-75
2023/04/24 12:27:44;;;;;;;4.45;1.55;;;;;;;;;;5081768;28;20415;-75
2023/04/24 12:30:13;;;;;;;4.43;1.70;;;;;;;;;;5086954;28;20208;-75
2023/04/24 12:33:02;;;;;;;5.25;1.75;;;;;;;;;;5082472;28;20048;-75
2023/04/24 12:35:29;;;;;;;8.65;2.50;;;;;;;;;;5083486;28;20048;-75
2023/04/24 12:37:56;;;;;;;6.15;1.88;;;;;;;;;;5081319;28;20118;-75
2023/04/24 12:40:25;;;;;;;2.55;1.75;;;;;;;;;;5089026;28;20036;-75
2023/04/24 12:42:52;;;;;;;4.95;1.77;;;;;;;;;;5088627;28;20048;-75
2023/04/24 12:45:18;;;;;;;5.45;1.75;;;;;;;;;;5083789;28;20044;-75
2023/04/24 12:47:45;;;;;;;5.38;1.85;;;;;;;;;;5088349;28;20377;-75
2023/04/24 12:50:12;;;;;;;3.35;1.42;;;;;;;;;;5085231;28;20060;-75
2023/04/24 12:52:38;;;;;;;4.15;1.40;;;;;;;;;;5094313;28;20390;-75
2023/04/24 12:55:07;;;;;;;1.83;1.20;;;;;;;;;;5083125;28;20105;-76
2023/04/24 12:57:34;;;;;;;3.00;1.30;;;;;;;;;;5080701;28;20040;-76
2023/04/24 13:00:00;;;;;;;3.40;1.35;;;;;;;;;;5092436;28;20082;-75
2023/04/24 13:02:27;;;;;;;4.55;1.55;;;;;;;;;;5090106;28;20478;-75
2023/04/24 13:04:54;;;;;;;3.60;1.98;;;;;;;;;;5085656;28;20098;-76
2023/04/24 13:07:20;;;;;;;5.28;2.10;;;;;;;;;;5093605;28;20072;-76
2023/04/24 13:09:49;;;;;;;4.75;2.10;;;;;;;;;;5098260;28;20036;-76
2023/04/24 13:12:15;;;;;;;4.75;1.85;;;;;;;;;;5085155;28;20524;-76
2023/04/24 13:14:41;;;;;;;6.63;2.35;;;;;;;;;;5094875;28;20059;-76
2023/04/24 13:17:09;;;;;;;4.53;2.20;;;;;;;;;;5090719;28;20048;-76
2023/04/24 13:19:38;;;;;;;7.07;2.78;;;;;;;;;;5090558;28;20048;-75
2023/04/24 13:22:05;;;;;;;8.15;2.80;;;;;;;;;;5092806;28;20047;-76
2023/04/24 13:24:31;;;;;;;7.55;2.60;;;;;;;;;;5087178;28;20129;-76
2023/04/24 13:26:58;;;;;;;9.30;2.85;;;;;;;;;;5088687;28;20403;-75
2023/04/24 13:29:24;;;;;;;10.30;2.88;;;;;;;;;;5089045;28;20040;-75
2023/04/24 13:31:51;;;;;;;6.85;2.60;;;;;;;;;;5077554;28;20045;-75
2023/04/24 13:34:18;;;;;;;5.45;2.20;;;;;;;;;;5082537;28;20029;-75
2023/04/24 13:36:44;;;;;;;4.05;2.25;;;;;;;;;;5081494;28;20394;-75
2023/04/24 13:39:10;;;;;;;6.32;2.40;;;;;;;;;;5088193;28;20040;-75
2023/04/24 13:41:37;;;;;;;7.45;2.67;;;;;;;;;;5091754;28;20051;-75
2023/04/24 13:44:03;;;;;;;8.13;2.80;;;;;;;;;;5093476;28;20048;-76
2023/04/24 13:46:30;;;;;;;5.97;2.60;;;;;;;;;;5087326;28;20070;-76
2023/04/24 13:48:56;;;;;;;6.45;2.85;;;;;;;;;;5084170;28;20041;-76
2023/04/24 13:51:23;;;;;;;8.80;3.10;;;;;;;;;;5079986;28;20045;-76
2023/04/24 13:53:49;;;;;;;10.95;3.15;;;;;;;;;;5089139;28;20089;-76
2023/04/24 13:56:15;;;;;;;8.70;3.85;;;;;;;;;;5080341;28;20044;-75
2023/04/24 13:58:41;;;;;;;8.98;3.63;;;;;;;;;;5089048;28;20055;-75
2023/04/24 14:01:08;;;;;;;7.05;3.53;;;;;;;;;;5086627;28;20054;-74
2023/04/24 14:03:34;;;;;;;10.15;3.60;;;;;;;;;;5081399;28;20067;-75
2023/04/24 14:06:00;;;;;;;10.73;3.72;;;;;;;;;;5082917;28;20045;-74
2023/04/24 14:08:26;;;;;;;9.30;3.60;;;;;;;;;;5076183;28;20041;-77
2023/04/24 14:10:52;;;;;;;8.60;3.30;;;;;;;;;;5093693;28;20390;-78
2023/04/24 14:13:18;;;;;;;10.60;3.80;;;;;;;;;;5094968;28;20501;-76
2023/04/24 14:15:44;;;;;;;7.38;3.38;;;;;;;;;;5093366;28;20557;-75
2023/04/24 14:18:10;;;;;;;9.30;3.83;;;;;;;;;;5090100;28;20063;-75
2023/04/24 14:20:36;;;;;;;9.15;3.80;;;;;;;;;;5095769;28;20173;-75
2023/04/24 14:23:03;;;;;;;12.48;4.55;;;;;;;;;;5093521;28;20127;-75
2023/04/24 14:25:29;;;;;;;11.20;4.50;;;;;;;;;;5097279;28;20125;-75
2023/04/24 14:27:55;;;;;;;8.65;3.53;;;;;;;;;;5096910;28;20048;-76
2023/04/24 14:30:22;;;;;;;7.38;3.83;;;;;;;;;;5089884;28;20048;-76
2023/04/24 14:32:49;;;;;;;11.50;5.43;;;;;;;;;;5095071;28;20479;-76
2023/04/24 14:35:15;;;;;;;8.35;3.50;;;;;;;;;;5090995;28;20040;-76
2023/04/24 14:37:42;;;;;;;10.98;3.42;;;;;;;;;;5078838;28;20437;-76
2023/04/24 14:40:09;;;;;;;9.63;3.67;;;;;;;;;;5096611;28;20051;-76